createdAt,value
2022-12-26T00:00:08.107Z,89964.50
2022-12-26T00:02:35.370Z,89957.50
2022-12-26T00:05:02.410Z,89965.88
2022-12-26T00:07:29.449Z,89965.38
2022-12-26T00:09:56.466Z,89969.84
2022-12-26T00:12:23.331Z,89964.97
2022-12-26T00:14:50.381Z,89966.13
2022-12-26T00:17:17.284Z,89967.69
2022-12-26T00:19:44.375Z,89975.22
2022-12-26T00:22:11.210Z,89972.88
2022-12-26T00:24:38.010Z,89975.06
2022-12-26T00:27:04.874Z,89972.22
2022-12-26T00:29:31.856Z,89981.78
2022-12-26T00:31:58.932Z,89995.38
2022-12-26T00:34:25.813Z,89994.97
2022-12-26T00:36:52.728Z,89992.88
2022-12-26T00:39:19.717Z,90001.56
2022-12-26T00:41:46.662Z,89993.16
2022-12-26T00:44:13.557Z,89995.13
2022-12-26T00:46:40.504Z,89993.69
2022-12-26T00:49:07.493Z,89995.13
2022-12-26T00:51:34.557Z,89991.47
2022-12-26T00:54:01.451Z,89983.59
2022-12-26T00:56:28.359Z,89983.88
2022-12-26T00:58:55.362Z,89972.16
2022-12-26T01:01:23.584Z,89979.63
2022-12-26T01:03:51.686Z,89982.50
2022-12-26T01:06:18.966Z,89987.97
2022-12-26T01:08:46.013Z,89986.81
2022-12-26T01:11:16.302Z,89987.13
2022-12-26T01:13:44.265Z,89993.13
2022-12-26T01:16:11.468Z,89998.75
2022-12-26T01:18:38.467Z,89994.78
2022-12-26T01:21:11.021Z,89997.13
2022-12-26T01:23:37.936Z,90003.31
2022-12-26T01:26:18.900Z,90007.28
2022-12-26T01:28:50.281Z,90003.59
2022-12-26T01:31:18.126Z,90001.72
2022-12-26T01:33:45.179Z,90007.50
2022-12-26T01:36:12.460Z,89995.19
2022-12-26T01:38:39.239Z,89991.66
2022-12-26T01:41:06.670Z,89993.88
2022-12-26T01:43:48.868Z,89988.84
2022-12-26T01:46:18.012Z,89989.94
2022-12-26T01:48:46.191Z,89983.66
2022-12-26T01:51:15.102Z,89991.59
2022-12-26T01:53:50.373Z,89994.44
2022-12-26T01:56:26.422Z,89995.97
2022-12-26T01:59:02.782Z,89992.91
2022-12-26T02:01:33.684Z,90005.28
2022-12-26T02:04:04.961Z,90009.44
2022-12-26T02:06:33.524Z,90012.59
2022-12-26T02:09:00.811Z,90012.72
2022-12-26T02:11:35.473Z,90016.84
2022-12-26T02:14:07.014Z,90017.22
2022-12-26T02:16:35.907Z,90011.25
2022-12-26T02:19:04.370Z,90013.94
2022-12-26T02:22:02.116Z,90018.84
2022-12-26T02:25:02.364Z,90019.00
2022-12-26T02:27:46.608Z,90023.47
2022-12-26T02:30:31.920Z,90022.38
2022-12-26T02:33:17.258Z,90018.88
2022-12-26T02:35:53.449Z,90025.59
2022-12-26T02:38:57.303Z,90023.91
2022-12-26T02:41:34.339Z,90027.22
2022-12-26T02:44:13.034Z,90027.47
2022-12-26T02:46:47.663Z,90026.59
2022-12-26T02:49:33.117Z,90028.47
2022-12-26T02:52:24.095Z,90025.06
2022-12-26T02:55:11.887Z,90022.44
2022-12-26T02:57:45.015Z,90025.94
2022-12-26T03:00:18.025Z,90027.16
2022-12-26T03:02:53.795Z,90032.28
2022-12-26T03:05:29.123Z,90039.63
2022-12-26T03:07:57.137Z,90042.44
2022-12-26T03:10:29.159Z,90043.72
2022-12-26T03:13:01.637Z,90049.09
2022-12-26T03:15:31.804Z,90050.81
2022-12-26T03:18:06.673Z,90046.25
2022-12-26T03:20:36.211Z,90046.06
2022-12-26T03:23:08.140Z,90050.81
2022-12-26T03:25:48.876Z,90046.50
2022-12-26T03:28:16.497Z,90060.66
2022-12-26T03:30:43.508Z,90060.94
2022-12-26T03:33:10.816Z,90069.19
2022-12-26T03:35:37.763Z,90060.72
2022-12-26T03:38:16.372Z,90069.91
2022-12-26T03:41:10.252Z,90080.06
2022-12-26T03:44:02.896Z,90072.53
2022-12-26T03:47:09.412Z,90077.16
2022-12-26T03:49:45.104Z,90070.44
2022-12-26T03:52:20.853Z,90068.22
2022-12-26T03:54:47.826Z,90073.59
2022-12-26T03:57:21.656Z,90073.69
2022-12-26T04:00:12.677Z,90067.41
2022-12-26T04:02:41.471Z,90080.53
2022-12-26T04:05:11.345Z,90089.28
2022-12-26T04:07:56.580Z,90081.41
2022-12-26T04:10:33.493Z,90092.72
2022-12-26T04:13:03.813Z,90086.50
2022-12-26T04:15:48.460Z,90089.34
2022-12-26T04:18:19.511Z,90084.94
2022-12-26T04:21:02.784Z,90079.31
2022-12-26T04:23:44.387Z,90080.06
2022-12-26T04:26:22.577Z,90070.31
2022-12-26T04:28:49.609Z,90074.19
2022-12-26T04:31:50.438Z,90083.03
2022-12-26T04:34:32.649Z,90082.31
2022-12-26T04:37:03.919Z,90080.72
2022-12-26T04:39:35.144Z,90085.84
2022-12-26T04:42:02.663Z,90082.63
2022-12-26T04:44:30.861Z,90080.53
2022-12-26T04:46:57.822Z,90074.50
2022-12-26T04:49:24.772Z,90079.78
2022-12-26T04:51:52.382Z,90079.34
2022-12-26T04:54:19.497Z,90085.59
2022-12-26T04:56:46.483Z,90084.00
2022-12-26T04:59:13.770Z,90090.09
2022-12-26T05:01:40.835Z,90087.09
2022-12-26T05:04:13.541Z,90091.66
2022-12-26T05:06:40.416Z,90092.41
2022-12-26T05:09:11.029Z,90097.38
2022-12-26T05:11:38.217Z,90100.69
2022-12-26T05:14:04.992Z,90105.41
2022-12-26T05:16:31.895Z,90106.03
2022-12-26T05:18:58.732Z,90112.44
2022-12-26T05:21:25.658Z,90112.53
2022-12-26T05:23:52.515Z,90111.84
2022-12-26T05:26:23.521Z,90114.84
2022-12-26T05:28:57.373Z,90120.75
2022-12-26T05:31:26.268Z,90125.69
2022-12-26T05:33:55.419Z,90126.06
2022-12-26T05:36:25.262Z,90135.53
2022-12-26T05:38:52.116Z,90134.13
2022-12-26T05:41:19.658Z,90134.41
2022-12-26T05:43:55.878Z,90145.66
2022-12-26T05:46:22.882Z,90141.22
2022-12-26T05:48:49.723Z,90138.31
2022-12-26T05:51:16.727Z,90145.44
2022-12-26T05:53:43.697Z,90151.22
2022-12-26T05:56:15.789Z,90154.72
2022-12-26T05:58:43.471Z,90157.19
2022-12-26T06:01:13.590Z,90161.50
2022-12-26T06:03:55.124Z,90161.03
2022-12-26T06:06:23.754Z,90176.66
2022-12-26T06:08:53.006Z,90169.38
2022-12-26T06:11:20.750Z,90171.47
2022-12-26T06:13:48.890Z,90165.53
2022-12-26T06:16:18.276Z,90173.13
2022-12-26T06:18:45.930Z,90172.50
2022-12-26T06:21:18.553Z,90168.84
2022-12-26T06:23:45.659Z,90176.31
2022-12-26T06:26:13.253Z,90189.53
2022-12-26T06:28:42.144Z,90189.06
2022-12-26T06:31:15.566Z,90188.66
2022-12-26T06:33:42.709Z,90190.13
2022-12-26T06:36:15.844Z,90190.13
2022-12-26T06:38:43.635Z,90196.84
2022-12-26T06:41:13.734Z,90196.81
2022-12-26T06:43:40.929Z,90208.34
2022-12-26T06:46:10.244Z,90205.72
2022-12-26T06:48:37.155Z,90208.69
2022-12-26T06:51:05.945Z,90214.34
2022-12-26T06:53:34.422Z,90222.91
2022-12-26T06:56:14.109Z,90224.69
2022-12-26T06:58:41.895Z,90228.78
2022-12-26T07:01:14.384Z,90223.81
2022-12-26T07:03:48.571Z,90233.88
2022-12-26T07:06:23.731Z,90230.13
2022-12-26T07:08:51.671Z,90233.88
2022-12-26T07:11:21.528Z,90226.41
2022-12-26T07:13:48.485Z,90229.69
2022-12-26T07:16:15.454Z,90240.84
2022-12-26T07:18:43.124Z,90234.47
2022-12-26T07:21:13.316Z,90239.31
2022-12-26T07:23:40.613Z,90226.53
2022-12-26T07:26:08.091Z,90237.31
2022-12-26T07:28:35.628Z,90233.50
2022-12-26T07:31:03.374Z,90233.06
2022-12-26T07:33:30.695Z,90239.47
2022-12-26T07:36:01.578Z,90241.28
2022-12-26T07:38:28.474Z,90245.31
2022-12-26T07:40:58.954Z,90241.59
2022-12-26T07:43:26.397Z,90248.31
2022-12-26T07:45:53.395Z,90247.47
2022-12-26T07:48:20.455Z,90251.88
2022-12-26T07:50:47.460Z,90254.50
2022-12-26T07:53:15.341Z,90250.31
2022-12-26T07:55:42.256Z,90245.06
2022-12-26T07:58:09.236Z,90240.97
2022-12-26T08:00:36.201Z,90241.91
2022-12-26T08:03:07.438Z,90244.19
2022-12-26T08:05:35.233Z,90250.84
2022-12-26T08:08:02.345Z,90248.09
2022-12-26T08:10:29.401Z,90255.66
2022-12-26T08:12:56.412Z,90254.91
2022-12-26T08:15:23.299Z,90248.72
2022-12-26T08:17:50.205Z,90249.22
2022-12-26T08:20:17.144Z,90248.25
2022-12-26T08:22:44.054Z,90246.63
2022-12-26T08:25:11.922Z,90246.31
2022-12-26T08:27:40.293Z,90242.00
2022-12-26T08:30:08.176Z,90237.63
2022-12-26T08:32:36.206Z,90238.97
2022-12-26T08:35:05.784Z,90232.75
2022-12-26T08:37:32.985Z,90241.97
2022-12-26T08:40:00.044Z,90243.66
2022-12-26T08:42:27.004Z,90241.19
2022-12-26T08:44:54.346Z,90250.69
2022-12-26T08:47:21.409Z,90239.97
2022-12-26T08:49:48.345Z,90247.25
2022-12-26T08:52:15.196Z,90248.94
2022-12-26T08:54:42.232Z,90238.63
2022-12-26T08:57:09.256Z,90242.94
2022-12-26T08:59:36.257Z,90252.13
2022-12-26T09:02:03.379Z,90251.91
2022-12-26T09:04:30.555Z,90247.59
2022-12-26T09:06:57.454Z,90254.88
2022-12-26T09:09:24.433Z,90255.56
2022-12-26T09:11:51.468Z,90259.53
2022-12-26T09:14:18.421Z,90253.38
2022-12-26T09:16:50.117Z,90259.72
2022-12-26T09:19:19.243Z,90247.91
2022-12-26T09:21:47.680Z,90255.06
2022-12-26T09:24:17.986Z,90254.91
2022-12-26T09:26:45.539Z,90262.03
2022-12-26T09:29:13.926Z,90260.69
2022-12-26T09:31:40.885Z,90256.19
2022-12-26T09:34:08.638Z,90249.28
2022-12-26T09:36:37.849Z,90254.66
2022-12-26T09:39:05.747Z,90250.47
2022-12-26T09:41:32.619Z,90249.78
2022-12-26T09:44:22.155Z,90247.50
2022-12-26T09:47:08.092Z,90247.88
2022-12-26T09:49:37.692Z,90252.78
2022-12-26T09:52:15.929Z,90245.16
2022-12-26T09:54:53.215Z,90248.16
2022-12-26T09:57:44.222Z,90254.19
2022-12-26T10:00:18.802Z,90249.66
2022-12-26T10:02:52.099Z,90252.38
2022-12-26T10:05:25.204Z,90247.66
2022-12-26T10:08:13.380Z,90251.53
2022-12-26T10:10:53.537Z,90256.00
2022-12-26T10:13:26.323Z,90244.00
2022-12-26T10:16:32.337Z,90255.03
2022-12-26T10:19:01.982Z,90256.16
2022-12-26T10:21:31.900Z,90244.94
2022-12-26T10:24:04.841Z,90242.00
2022-12-26T10:26:36.727Z,90239.00
2022-12-26T10:29:09.745Z,90236.41
2022-12-26T10:31:45.785Z,90236.75
2022-12-26T10:34:36.983Z,90234.06
2022-12-26T10:37:25.030Z,90232.03
2022-12-26T10:40:09.995Z,90234.81
2022-12-26T10:42:50.850Z,90240.25
2022-12-26T10:45:36.746Z,90238.88
2022-12-26T10:48:04.461Z,90232.69
2022-12-26T10:50:33.643Z,90233.50
2022-12-26T10:53:03.777Z,90238.59
2022-12-26T10:55:34.550Z,90228.22
2022-12-26T10:58:18.086Z,90229.84
2022-12-26T11:00:45.447Z,90236.53
2022-12-26T11:03:15.253Z,90233.31
2022-12-26T11:08:49.263Z,90228.78
2022-12-26T11:11:34.299Z,90219.50
2022-12-26T11:14:03.107Z,90218.19
2022-12-26T11:16:35.305Z,90211.44
2022-12-26T11:19:03.279Z,90212.56
2022-12-26T11:21:32.422Z,90220.56
2022-12-26T11:24:08.325Z,90217.59
2022-12-26T11:26:36.607Z,90217.66
2022-12-26T11:29:21.825Z,90210.72
2022-12-26T11:32:02.041Z,90220.69
2022-12-26T11:34:34.185Z,90208.00
2022-12-26T11:37:01.962Z,90223.88
2022-12-26T11:39:33.449Z,90224.47
2022-12-26T11:42:00.697Z,90236.03
2022-12-26T11:44:37.288Z,90232.44
2022-12-26T11:47:16.225Z,90228.72
2022-12-26T11:49:49.193Z,90237.91
2022-12-26T11:52:40.088Z,90230.72
2022-12-26T11:55:36.220Z,90238.78
2022-12-26T11:58:18.212Z,90238.41
2022-12-26T12:00:51.293Z,90237.22
2022-12-26T12:03:48.671Z,90242.41
2022-12-26T12:06:31.034Z,90244.19
2022-12-26T12:09:19.338Z,90247.63
2022-12-26T12:11:55.182Z,90261.53
2022-12-26T12:14:38.100Z,90268.84
2022-12-26T12:17:26.589Z,90256.59
2022-12-26T12:20:23.529Z,90259.06
2022-12-26T12:23:05.674Z,90278.13
2022-12-26T12:25:40.251Z,90275.09
2022-12-26T12:28:18.898Z,90279.25
2022-12-26T12:31:03.764Z,90284.28
2022-12-26T12:33:48.848Z,90268.97
2022-12-26T12:36:31.719Z,90287.25
2022-12-26T12:39:10.539Z,90288.31
2022-12-26T12:41:52.650Z,90284.19
2022-12-26T12:44:29.534Z,90297.50
2022-12-26T12:47:35.081Z,90301.03
2022-12-26T12:50:20.286Z,90291.91
2022-12-26T12:52:55.940Z,90290.91
2022-12-26T12:55:43.037Z,90296.94
2022-12-26T12:58:18.907Z,90297.56
2022-12-26T13:00:52.755Z,90298.97
2022-12-26T13:03:29.279Z,90311.84
2022-12-26T13:06:11.230Z,90308.47
2022-12-26T13:08:48.651Z,90302.94
2022-12-26T13:11:33.171Z,90297.41
2022-12-26T13:14:24.471Z,90304.09
2022-12-26T13:17:11.722Z,90304.25
2022-12-26T13:20:26.789Z,90326.19
2022-12-26T13:22:59.796Z,90324.88
2022-12-26T13:25:34.851Z,90321.91
2022-12-26T13:28:09.160Z,90299.25
2022-12-26T13:30:38.130Z,90312.34
2022-12-26T13:33:06.019Z,90322.59
2022-12-26T13:35:53.743Z,90321.44
2022-12-26T13:38:22.771Z,90325.88
2022-12-26T13:40:57.323Z,90319.78
2022-12-26T13:43:25.551Z,90315.00
2022-12-26T13:45:58.592Z,90314.03
2022-12-26T13:48:28.550Z,90310.38
2022-12-26T13:50:57.970Z,90303.53
2022-12-26T13:53:24.798Z,90303.56
2022-12-26T13:55:55.815Z,90306.50
2022-12-26T13:58:44.133Z,90311.59
2022-12-26T14:01:39.180Z,90329.44
2022-12-26T14:04:18.151Z,90322.50
2022-12-26T14:07:11.388Z,90320.34
2022-12-26T14:10:04.945Z,90310.22
2022-12-26T14:12:49.590Z,90325.78
2022-12-26T14:15:48.820Z,90330.78
2022-12-26T14:18:38.280Z,90307.63
2022-12-26T14:21:14.004Z,90305.94
2022-12-26T14:23:57.799Z,90320.72
2022-12-26T14:26:49.968Z,90301.69
2022-12-26T14:29:34.837Z,90298.84
2022-12-26T14:32:10.647Z,90306.50
2022-12-26T14:34:58.638Z,90318.63
2022-12-26T14:37:47.086Z,90307.16
2022-12-26T14:40:31.656Z,90309.47
2022-12-26T14:43:14.228Z,90318.50
2022-12-26T14:46:02.212Z,90324.94
2022-12-26T14:48:29.054Z,90335.13
2022-12-26T14:51:05.306Z,90336.28
2022-12-26T14:53:35.792Z,90355.03
2022-12-26T14:56:09.931Z,90349.78
2022-12-26T14:58:42.653Z,90353.59
2022-12-26T15:01:09.752Z,90354.41
2022-12-26T15:03:58.417Z,90361.22
2022-12-26T15:07:20.607Z,90363.56
2022-12-26T15:10:35.863Z,90362.81
2022-12-26T15:13:18.160Z,90372.31
2022-12-26T15:16:03.680Z,90376.22
2022-12-26T15:19:05.808Z,90375.41
2022-12-26T15:21:50.784Z,90377.31
2022-12-26T15:25:20.860Z,90373.69
2022-12-26T15:27:48.045Z,90378.53
2022-12-26T15:30:17.377Z,90379.63
2022-12-26T15:32:54.243Z,90379.28
2022-12-26T15:35:43.803Z,90382.59
2022-12-26T15:38:29.269Z,90390.13
2022-12-26T15:41:13.854Z,90397.69
2022-12-26T15:44:09.700Z,90393.50
2022-12-26T15:46:43.714Z,90400.75
2022-12-26T15:49:46.165Z,90406.06
2022-12-26T15:52:28.037Z,90402.41
2022-12-26T15:55:12.948Z,90401.81
2022-12-26T15:58:01.255Z,90402.78
2022-12-26T16:00:36.233Z,90399.81
2022-12-26T16:03:21.507Z,90399.59
2022-12-26T16:05:54.078Z,90408.59
2022-12-26T16:08:55.023Z,90403.69
2022-12-26T16:11:26.343Z,90399.25
2022-12-26T16:14:02.723Z,90402.66
2022-12-26T16:16:33.345Z,90401.13
2022-12-26T16:19:16.531Z,90399.41
2022-12-26T16:21:48.020Z,90401.22
2022-12-26T16:24:22.549Z,90409.91
2022-12-26T16:26:49.732Z,90396.78
2022-12-26T16:29:20.527Z,90413.31
2022-12-26T16:31:47.881Z,90414.00
2022-12-26T16:34:18.426Z,90414.03
2022-12-26T16:36:45.803Z,90415.28
2022-12-26T16:39:13.345Z,90411.16
2022-12-26T16:42:03.887Z,90424.75
2022-12-26T16:44:40.784Z,90423.34
2022-12-26T16:47:13.135Z,90414.34
2022-12-26T16:49:41.013Z,90416.97
2022-12-26T16:52:07.979Z,90430.91
2022-12-26T16:54:40.421Z,90420.47
2022-12-26T16:57:19.381Z,90419.25
2022-12-26T16:59:52.348Z,90423.78
2022-12-26T17:02:34.521Z,90422.28
2022-12-26T17:05:16.108Z,90426.09
2022-12-26T17:07:45.529Z,90430.22
2022-12-26T17:10:23.207Z,90433.25
2022-12-26T17:12:51.182Z,90432.88
2022-12-26T17:15:25.704Z,90439.19
2022-12-26T17:17:52.671Z,90436.97
2022-12-26T17:20:22.580Z,90440.66
2022-12-26T17:22:54.454Z,90439.13
2022-12-26T17:25:32.011Z,90436.22
2022-12-26T17:28:19.022Z,90443.75
2022-12-26T17:30:47.927Z,90449.06
2022-12-26T17:33:22.788Z,90456.59
2022-12-26T17:38:40.654Z,90444.25
2022-12-26T17:41:09.409Z,90450.31
2022-12-26T17:43:38.989Z,90442.34
2022-12-26T17:46:08.023Z,90442.75
2022-12-26T17:48:35.542Z,90440.06
2022-12-26T17:51:05.207Z,90452.78
2022-12-26T17:53:35.807Z,90447.53
2022-12-26T17:56:10.832Z,90459.56
2022-12-26T17:58:38.896Z,90461.84
2022-12-26T18:01:05.810Z,90467.44
2022-12-26T18:03:32.887Z,90472.72
2022-12-26T18:05:59.831Z,90475.25
2022-12-26T18:08:29.274Z,90472.84
2022-12-26T18:10:56.610Z,90469.53
2022-12-26T18:13:24.107Z,90465.50
2022-12-26T18:15:52.697Z,90465.38
2022-12-26T18:18:29.880Z,90462.28
2022-12-26T18:20:56.765Z,90468.25
2022-12-26T18:23:24.035Z,90477.19
2022-12-26T18:25:54.533Z,90494.38
2022-12-26T18:28:23.906Z,90494.06
2022-12-26T18:30:50.869Z,90491.38
2022-12-26T18:33:17.774Z,90486.63
2022-12-26T18:35:45.491Z,90480.56
2022-12-26T18:38:18.241Z,90476.69
2022-12-26T18:40:48.027Z,90479.59
2022-12-26T18:43:15.217Z,90474.59
2022-12-26T18:45:43.036Z,90475.94
2022-12-26T18:48:14.022Z,90479.97
2022-12-26T18:50:41.636Z,90483.06
2022-12-26T18:53:08.683Z,90473.38
2022-12-26T18:55:35.716Z,90472.69
2022-12-26T18:58:02.832Z,90475.66
2022-12-26T19:00:29.771Z,90471.91
2022-12-26T19:02:56.840Z,90459.38
2022-12-26T19:05:29.231Z,90464.63
2022-12-26T19:07:56.508Z,90473.25
2022-12-26T19:10:30.255Z,90483.19
2022-12-26T19:13:04.624Z,90482.44
2022-12-26T19:15:33.563Z,90470.06
2022-12-26T19:18:01.039Z,90468.56
2022-12-26T19:20:28.893Z,90465.94
2022-12-26T19:22:56.242Z,90468.59
2022-12-26T19:25:24.826Z,90470.56
2022-12-26T19:27:52.091Z,90477.69
2022-12-26T19:30:23.225Z,90469.81
2022-12-26T19:32:50.805Z,90466.78
2022-12-26T19:35:18.759Z,90464.31
2022-12-26T19:37:45.784Z,90464.09
2022-12-26T19:40:14.295Z,90470.84
2022-12-26T19:42:42.473Z,90479.78
2022-12-26T19:45:11.238Z,90483.44
2022-12-26T19:47:38.106Z,90471.75
2022-12-26T19:50:06.901Z,90475.47
2022-12-26T19:52:34.371Z,90475.78
2022-12-26T19:55:01.334Z,90473.94
2022-12-26T19:57:28.263Z,90477.34
2022-12-26T19:59:55.208Z,90471.03
2022-12-26T20:02:22.187Z,90477.69
2022-12-26T20:04:49.276Z,90479.78
2022-12-26T20:07:16.191Z,90475.63
2022-12-26T20:09:43.144Z,90481.56
2022-12-26T20:12:10.195Z,90475.56
2022-12-26T20:14:37.275Z,90470.94
2022-12-26T20:17:08.247Z,90472.84
2022-12-26T20:19:36.474Z,90472.69
2022-12-26T20:22:04.862Z,90473.22
2022-12-26T20:24:31.990Z,90485.59
2022-12-26T20:26:59.004Z,90481.41
2022-12-26T20:29:26.027Z,90473.47
2022-12-26T20:31:52.979Z,90477.16
2022-12-26T20:34:19.903Z,90475.63
2022-12-26T20:36:46.974Z,90478.94
2022-12-26T20:39:16.906Z,90474.78
2022-12-26T20:41:44.049Z,90482.25
2022-12-26T20:44:13.363Z,90475.47
2022-12-26T20:46:42.319Z,90470.19
2022-12-26T20:49:09.772Z,90460.50
2022-12-26T20:51:38.516Z,90464.97
2022-12-26T20:54:10.189Z,90468.66
2022-12-26T20:56:38.722Z,90471.41
2022-12-26T20:59:06.971Z,90469.53
2022-12-26T21:01:34.508Z,90467.66
2022-12-26T21:04:01.807Z,90467.19
2022-12-26T21:06:33.269Z,90470.94
2022-12-26T21:09:00.387Z,90471.69
2022-12-26T21:11:30.536Z,90470.88
2022-12-26T21:14:01.206Z,90467.88
2022-12-26T21:16:38.226Z,90464.91
2022-12-26T21:19:10.685Z,90460.84
2022-12-26T21:21:42.888Z,90460.91
2022-12-26T21:24:28.291Z,90474.88
2022-12-26T21:26:56.463Z,90471.59
2022-12-26T21:29:29.719Z,90473.84
2022-12-26T21:31:57.265Z,90477.16
2022-12-26T21:34:26.189Z,90474.84
2022-12-26T21:36:53.714Z,90465.16
2022-12-26T21:39:20.653Z,90460.03
2022-12-26T21:41:47.482Z,90457.00
2022-12-26T21:44:14.341Z,90477.16
2022-12-26T21:46:41.117Z,90481.72
2022-12-26T21:49:08.132Z,90483.59
2022-12-26T21:51:35.118Z,90469.63
2022-12-26T21:54:02.038Z,90473.44
2022-12-26T21:56:28.900Z,90469.66
2022-12-26T21:58:55.951Z,90483.06
2022-12-26T22:01:25.463Z,90485.25
2022-12-26T22:03:53.089Z,90481.84
2022-12-26T22:06:19.957Z,90480.56
2022-12-26T22:08:46.778Z,90474.91
2022-12-26T22:11:17.835Z,90470.38
2022-12-26T22:13:44.748Z,90468.75
2022-12-26T22:16:13.064Z,90477.66
2022-12-26T22:18:41.494Z,90473.91
2022-12-26T22:21:12.781Z,90470.28
2022-12-26T22:23:40.967Z,90470.13
2022-12-26T22:26:09.347Z,90476.19
2022-12-26T22:28:36.389Z,90490.38
2022-12-26T22:31:03.505Z,90485.91
2022-12-26T22:33:31.259Z,90482.84
2022-12-26T22:36:09.163Z,90480.53
2022-12-26T22:38:38.089Z,90479.00
2022-12-26T22:41:06.163Z,90487.13
2022-12-26T22:43:33.310Z,90480.47
2022-12-26T22:46:00.364Z,90479.25
2022-12-26T22:48:27.341Z,90473.94
2022-12-26T22:50:55.645Z,90474.66
2022-12-26T22:53:24.802Z,90484.31
2022-12-26T22:55:56.712Z,90473.44
2022-12-26T22:58:23.646Z,90479.75
2022-12-26T23:00:50.587Z,90474.06
2022-12-26T23:03:18.173Z,90468.41
2022-12-26T23:05:45.861Z,90462.00
2022-12-26T23:08:25.227Z,90463.84
2022-12-26T23:10:54.455Z,90464.25
2022-12-26T23:13:21.784Z,90463.06
2022-12-26T23:16:00.329Z,90472.44
2022-12-26T23:18:45.763Z,90467.31
2022-12-26T23:21:27.212Z,90457.19
2022-12-26T23:23:54.075Z,90460.88
2022-12-26T23:26:21.074Z,90454.44
2022-12-26T23:28:48.151Z,90453.63
2022-12-26T23:31:15.409Z,90463.66
2022-12-26T23:33:42.292Z,90461.41
2022-12-26T23:36:09.498Z,90462.50
2022-12-26T23:38:36.330Z,90457.56
2022-12-26T23:41:03.493Z,90453.03
2022-12-26T23:43:30.447Z,90458.75
2022-12-26T23:45:57.371Z,90455.00
2022-12-26T23:48:24.215Z,90453.84
2022-12-26T23:50:51.203Z,90464.63
2022-12-26T23:53:18.111Z,90455.56
2022-12-26T23:55:44.885Z,90463.47
2022-12-26T23:58:11.787Z,90475.75
